Time;durP1;ratioP1;P1;durP2;ratioP2;P2;SDS_P1;SDS_P2;PMS_P1;PMS_P2;Temp;Humidity;BMP_temperature;BMP_pressure;BME280_temperature;BME280_humidity;BME280_pressure;Samples;Min_cycle;Max_cycle;Signal;HPM_P1;HPM_P2
2022/11/30 00:00:16;;;;;;;125.28;33.25;;;;;;;7.34;68.27;100355.69;10473368;28;20048;-66
2022/11/30 00:05:17;;;;;;;98.15;30.52;;;;;;;7.35;68.37;100358.22;10435884;28;20119;-65
2022/11/30 00:10:20;;;;;;;77.85;29.55;;;;;;;7.33;68.38;100361.78;10435181;28;20052;-66
2022/11/30 00:15:22;;;;;;;86.25;30.45;;;;;;;7.33;68.36;100354.81;10441665;28;20045;-65
2022/11/30 00:20:25;;;;;;;118.80;34.03;;;;;;;7.37;68.37;100358.16;10436229;28;20040;-65
2022/11/30 00:25:26;;;;;;;98.57;33.15;;;;;;;7.35;68.35;100358.22;10440106;28;20778;-66
2022/11/30 00:30:29;;;;;;;86.60;29.58;;;;;;;7.34;68.48;100355.69;10442557;28;20053;-67
2022/11/30 00:35:31;;;;;;;101.30;31.70;;;;;;;7.34;68.45;100358.28;10441765;28;20051;-66
2022/11/30 00:40:32;;;;;;;76.45;29.92;;;;;;;7.32;68.34;100360.09;10429447;28;20037;-66
2022/11/30 00:45:34;;;;;;;94.20;32.33;;;;;;;7.31;68.35;100353.19;10450020;28;20052;-66
2022/11/30 00:50:36;;;;;;;124.85;33.28;;;;;;;7.32;68.71;100350.56;10428426;28;20208;-65
2022/11/30 00:55:37;;;;;;;105.78;32.38;;;;;;;7.38;68.46;100360.72;10428681;28;20041;-66
2022/11/30 01:00:39;;;;;;;96.47;30.73;;;;;;;7.37;68.54;100364.22;10441050;28;20049;-66
2022/11/30 01:05:44;;;;;;;76.28;29.20;;;;;;;7.40;68.48;100364.09;10465556;28;20037;-66
2022/11/30 01:10:52;;;;;;;94.55;31.10;;;;;;;7.44;68.25;100363.06;10428779;28;20049;-66
2022/11/30 01:15:53;;;;;;;95.03;32.83;;;;;;;7.51;68.11;100361.91;10427189;28;20055;-67
2022/11/30 01:20:55;;;;;;;124.63;36.85;;;;;;;7.56;68.17;100370.38;10427105;28;20053;-66
2022/11/30 01:25:57;;;;;;;120.43;34.25;;;;;;;7.53;68.08;100362.69;10429053;28;20456;-66
2022/11/30 01:31:06;;;;;;;121.18;35.50;;;;;;;7.46;68.25;100365.59;10428440;28;20053;-65
2022/11/30 01:36:11;;;;;;;99.82;33.30;;;;;;;7.50;68.29;100364.56;10431095;28;20053;-66
2022/11/30 01:41:17;;;;;;;103.80;34.30;;;;;;;7.50;68.21;100355.00;10428289;28;20053;-66
2022/11/30 01:46:27;;;;;;;104.57;35.25;;;;;;;7.45;68.39;100362.13;10432612;28;20048;-65
2022/11/30 01:51:53;;;;;;;141.10;37.73;;;;;;;7.41;68.49;100357.13;10429511;28;20053;-66
2022/11/30 01:57:21;;;;;;;113.82;34.60;;;;;;;7.34;68.67;100358.28;10415302;28;20059;-66
2022/11/30 02:02:53;;;;;;;115.68;34.88;;;;;;;7.37;68.58;100352.94;10423355;28;20055;-66
2022/11/30 02:07:55;;;;;;;95.15;30.70;;;;;;;7.40;68.61;100360.63;10425958;28;20551;-66
2022/11/30 02:13:00;;;;;;;118.82;33.78;;;;;;;7.35;68.63;100360.81;10425968;28;20612;-65
2022/11/30 02:18:12;;;;;;;111.68;35.08;;;;;;;7.41;68.66;100363.16;10428138;28;20512;-65
2022/11/30 02:23:32;;;;;;;97.22;32.47;;;;;;;7.44;68.64;100370.88;10433038;28;20056;-66
2022/11/30 02:29:01;;;;;;;99.30;33.17;;;;;;;7.35;68.73;100366.03;10426185;28;20063;-66
2022/11/30 02:34:06;;;;;;;111.07;34.20;;;;;;;7.33;68.61;100357.44;10433952;28;20060;-67
2022/11/30 02:39:10;;;;;;;100.03;34.10;;;;;;;7.43;68.60;100361.34;10428197;28;20052;-65
2022/11/30 02:44:12;;;;;;;95.13;32.55;;;;;;;7.44;68.46;100363.06;10434745;28;20040;-66
2022/11/30 02:49:38;;;;;;;99.88;33.60;;;;;;;7.38;68.74;100375.47;10430329;28;20145;-66
2022/11/30 02:54:40;;;;;;;130.88;34.53;;;;;;;7.49;68.42;100368.91;10434333;28;20408;-66
2022/11/30 02:59:42;;;;;;;113.18;33.17;;;;;;;7.43;68.65;100374.38;10436483;28;20045;-66
2022/11/30 03:04:43;;;;;;;103.50;31.88;;;;;;;7.42;68.68;100370.09;10439575;28;20347;-66
2022/11/30 03:09:45;;;;;;;111.00;31.70;;;;;;;7.49;68.51;100373.31;10453782;28;20053;-65
2022/11/30 03:14:47;;;;;;;99.53;32.25;;;;;;;7.52;68.33;100376.63;10442341;28;20052;-66
2022/11/30 03:19:49;;;;;;;88.10;31.10;;;;;;;7.46;68.41;100374.25;10440130;28;20111;-65
2022/11/30 03:24:50;;;;;;;87.25;30.55;;;;;;;7.45;68.76;100372.56;10455374;28;20041;-66
2022/11/30 03:29:52;;;;;;;126.40;34.17;;;;;;;7.49;68.71;100371.53;10440106;28;20057;-66
2022/11/30 03:34:54;;;;;;;126.65;33.63;;;;;;;7.47;68.85;100365.53;10450105;28;20060;-66
2022/11/30 03:39:55;;;;;;;148.07;34.08;;;;;;;7.46;68.78;100361.25;10442747;28;20053;-66
2022/11/30 03:44:59;;;;;;;105.80;30.98;;;;;;;7.52;68.73;100368.81;10438792;28;20075;-66
2022/11/30 03:50:00;;;;;;;72.43;27.05;;;;;;;7.52;68.77;100376.63;10439538;28;20060;-66
2022/11/30 03:55:02;;;;;;;113.10;31.13;;;;;;;7.52;68.78;100375.75;10439084;28;20044;-66
2022/11/30 04:00:05;;;;;;;96.55;29.38;;;;;;;7.54;68.89;100368.75;10446857;28;20122;-65
2022/11/30 04:05:07;;;;;;;84.15;27.45;;;;;;;7.53;68.80;100369.66;10434352;28;20049;-66
2022/11/30 04:10:09;;;;;;;129.98;31.90;;;;;;;7.49;68.86;100363.72;10437720;28;20068;-65
2022/11/30 04:15:11;;;;;;;94.53;28.13;;;;;;;7.53;68.69;100365.28;10438646;28;20045;-65
2022/11/30 04:20:13;;;;;;;158.20;32.80;;;;;;;7.55;68.59;100365.25;10430789;28;20049;-66
2022/11/30 04:25:15;;;;;;;138.07;31.42;;;;;;;7.59;68.67;100375.44;10437669;28;20052;-67
2022/11/30 04:30:16;;;;;;;100.75;28.83;;;;;;;7.60;68.63;100376.31;10429878;28;20056;-66
2022/11/30 04:35:18;;;;;;;86.43;27.85;;;;;;;7.56;68.76;100377.34;10432174;28;20051;-65
2022/11/30 04:40:20;;;;;;;106.22;29.05;;;;;;;7.63;68.69;100382.22;10440242;28;20040;-66
2022/11/30 04:45:21;;;;;;;95.20;28.02;;;;;;;7.62;68.54;100382.28;10429081;28;20056;-66
2022/11/30 04:50:23;;;;;;;88.55;28.02;;;;;;;7.65;68.58;100385.59;10431113;28;20049;-66
2022/11/30 04:55:25;;;;;;;100.03;28.98;;;;;;;7.69;68.59;100397.59;10440894;28;20436;-66
2022/11/30 05:00:26;;;;;;;108.85;29.55;;;;;;;7.72;68.58;100391.41;10429872;28;20307;-65
2022/11/30 05:05:28;;;;;;;91.57;28.05;;;;;;;7.72;68.50;100392.28;10438145;28;20055;-66
2022/11/30 05:10:32;;;;;;;95.18;28.02;;;;;;;7.77;68.42;100392.91;10429794;28;20053;-65
2022/11/30 05:15:34;;;;;;;89.90;27.10;;;;;;;7.79;68.35;100392.88;10436850;28;20406;-66
2022/11/30 05:20:35;;;;;;;86.55;26.40;;;;;;;7.79;68.43;100383.28;10429514;28;20049;-66
2022/11/30 05:25:37;;;;;;;106.70;28.77;;;;;;;7.80;68.43;100392.81;10430095;28;20053;-65
2022/11/30 05:30:41;;;;;;;106.97;29.33;;;;;;;7.80;68.61;100387.59;10427095;28;20056;-67
2022/11/30 05:35:43;;;;;;;87.97;27.20;;;;;;;7.76;68.58;100385.19;10427595;28;20242;-66
2022/11/30 05:40:44;;;;;;;123.95;29.88;;;;;;;7.81;68.42;100388.44;10436778;28;20421;-66
2022/11/30 05:45:46;;;;;;;70.85;25.90;;;;;;;7.75;68.46;100402.53;10427324;28;20060;-65
2022/11/30 05:50:47;;;;;;;78.70;26.83;;;;;;;7.80;68.44;100399.75;10435599;28;20053;-65
2022/11/30 05:55:49;;;;;;;63.33;24.75;;;;;;;7.77;68.11;100403.31;10428769;28;20430;-65
2022/11/30 06:00:51;;;;;;;101.22;27.10;;;;;;;7.80;68.27;100402.38;10430085;28;20040;-66
2022/11/30 06:05:52;;;;;;;149.43;32.38;;;;;;;7.78;68.36;100398.97;10427724;28;20037;-65
2022/11/30 06:10:59;;;;;;;92.22;27.05;;;;;;;7.78;68.54;100412.00;10428156;28;20520;-65
2022/11/30 06:16:02;;;;;;;82.57;26.05;;;;;;;7.72;68.59;100409.63;10435244;28;20056;-66
2022/11/30 06:21:07;;;;;;;90.07;27.63;;;;;;;7.70;68.49;100409.72;10428979;28;20521;-66
2022/11/30 06:26:11;;;;;;;102.93;29.13;;;;;;;7.68;68.59;100400.25;10437836;28;20544;-65
2022/11/30 06:31:13;;;;;;;97.03;28.65;;;;;;;7.66;68.49;100408.13;10433114;28;20060;-66
2022/11/30 06:36:20;;;;;;;101.25;29.30;;;;;;;7.66;68.57;100412.50;10426231;28;20041;-66
2022/11/30 06:41:21;;;;;;;68.32;26.38;;;;;;;7.66;68.37;100412.50;10434715;28;20661;-66
2022/11/30 06:46:23;;;;;;;64.13;26.10;;;;;;;7.64;68.48;100409.97;10426390;28;20084;-66
2022/11/30 06:51:25;;;;;;;63.33;24.85;;;;;;;7.62;68.54;100419.59;10427426;28;20130;-66
2022/11/30 06:56:27;;;;;;;67.85;23.08;;;;;;;7.64;68.62;100420.38;10425866;28;20051;-65
2022/11/30 07:01:28;;;;;;;64.50;23.60;;;;;;;7.60;68.66;100418.81;10433893;28;20053;-67
2022/11/30 07:06:30;;;;;;;62.15;24.05;;;;;;;7.59;68.68;100427.50;10426540;28;20052;-66
2022/11/30 07:11:32;;;;;;;57.00;23.45;;;;;;;7.62;68.82;100432.59;10426772;28;20243;-66
2022/11/30 07:16:33;;;;;;;80.22;25.15;;;;;;;7.72;68.67;100433.94;10426274;28;20053;-66
2022/11/30 07:21:35;;;;;;;67.85;23.80;;;;;;;7.79;68.52;100440.56;10475927;28;20515;-66
2022/11/30 07:26:37;;;;;;;75.38;25.65;;;;;;;7.84;68.25;100440.38;10422255;28;20061;-66
2022/11/30 07:31:38;;;;;;;90.80;26.73;;;;;;;7.88;68.18;100449.78;10424023;28;20053;-66
2022/11/30 07:36:40;;;;;;;56.75;23.45;;;;;;;7.75;68.48;100449.41;10437202;28;20409;-68
2022/11/30 07:41:42;;;;;;;62.88;23.08;;;;;;;7.87;68.47;100453.28;10432232;28;20493;-68
2022/11/30 07:46:43;;;;;;;47.60;19.48;;;;;;;7.91;68.39;100449.66;10437010;28;20055;-67
2022/11/30 07:51:45;;;;;;;77.90;25.30;;;;;;;8.01;68.29;100453.59;10431921;28;20048;-67
2022/11/30 07:56:46;;;;;;;70.13;24.63;;;;;;;8.10;68.23;100465.38;10431926;28;20045;-67
2022/11/30 08:01:48;;;;;;;53.70;22.90;;;;;;;8.02;68.13;100456.13;10465320;28;20563;-66
2022/11/30 08:06:52;;;;;;;60.35;22.55;;;;;;;8.11;68.21;100447.13;10432484;28;20049;-67
2022/11/30 08:11:53;;;;;;;63.15;22.77;;;;;;;8.16;68.11;100455.56;10432757;28;20045;-66
2022/11/30 08:16:55;;;;;;;67.85;26.20;;;;;;;8.19;68.07;100452.00;10431365;28;20041;-66
2022/11/30 08:21:57;;;;;;;80.40;26.67;;;;;;;8.11;68.44;100462.75;10434740;28;20140;-66
2022/11/30 08:26:58;;;;;;;70.03;26.45;;;;;;;8.07;68.41;100462.91;10434091;28;20061;-66
2022/11/30 08:32:00;;;;;;;78.53;25.67;;;;;;;8.15;68.38;100469.53;10429508;28;20496;-67
2022/11/30 08:37:02;;;;;;;53.10;22.90;;;;;;;8.25;68.13;100467.38;10427015;28;20415;-66
2022/11/30 08:42:04;;;;;;;73.00;26.25;;;;;;;8.19;68.10;100465.88;10429509;28;20052;-67
2022/11/30 08:47:06;;;;;;;68.85;24.45;;;;;;;8.29;68.12;100461.13;10433765;28;20057;-66
2022/11/30 08:52:07;;;;;;;60.90;24.65;;;;;;;8.48;67.57;100464.66;10427103;28;20561;-67
2022/11/30 08:57:30;;;;;;;62.45;24.83;;;;;;;8.64;67.42;100468.31;10430869;28;20398;-66
2022/11/30 09:02:31;;;;;;;64.35;24.88;;;;;;;8.71;67.42;100467.97;10429178;28;20394;-66
2022/11/30 09:07:33;;;;;;;52.03;22.77;;;;;;;8.84;67.21;100468.28;10439950;28;20577;-67
2022/11/30 09:12:36;;;;;;;47.55;22.67;;;;;;;8.90;66.69;100470.59;10437450;28;20134;-66
2022/11/30 09:17:38;;;;;;;46.17;22.67;;;;;;;8.93;66.76;100475.72;10429056;28;20079;-66
2022/11/30 09:22:40;;;;;;;47.78;21.73;;;;;;;8.94;66.85;100477.38;10433178;28;20041;-65
2022/11/30 09:27:42;;;;;;;46.67;21.00;;;;;;;8.95;66.83;100476.47;10422979;28;20049;-66
2022/11/30 09:32:44;;;;;;;40.05;21.17;;;;;;;9.16;66.53;100478.13;10427538;28;20524;-67
2022/11/30 09:37:45;;;;;;;42.42;21.48;;;;;;;9.18;66.32;100478.88;10427253;28;20762;-66
2022/11/30 09:43:01;;;;;;;39.53;20.02;;;;;;;9.16;66.43;100472.03;10432073;28;20056;-66
2022/11/30 09:48:17;;;;;;;36.95;18.67;;;;;;;9.13;66.26;100487.84;10425357;28;20053;-66
2022/11/30 09:53:25;;;;;;;48.90;26.92;;;;;;;9.17;66.22;100474.59;10428878;28;20381;-66
2022/11/30 09:58:46;;;;;;;45.58;26.30;;;;;;;9.19;66.11;100483.22;10429363;28;20045;-67
2022/11/30 10:03:48;;;;;;;47.58;29.33;;;;;;;9.24;66.04;100465.56;10425976;28;20052;-67
2022/11/30 10:09:22;;;;;;;41.28;25.23;;;;;;;9.23;66.26;100476.06;10437435;28;20478;-66
2022/11/30 10:14:59;;;;;;;34.00;18.92;;;;;;;9.33;65.92;100472.97;10431401;28;20048;-67
2022/11/30 10:20:35;;;;;;;28.40;17.17;;;;;;;9.41;65.20;100485.66;10422209;28;20072;-71
2022/11/30 10:25:57;;;;;;;26.80;16.30;;;;;;;9.46;64.96;100474.09;10434635;28;20516;-71
2022/11/30 10:31:00;;;;;;;24.60;14.85;;;;;;;9.37;65.01;100479.75;10423061;28;20052;-71
2022/11/30 10:36:08;;;;;;;24.52;14.77;;;;;;;9.33;64.87;100480.81;10423975;28;20953;-71
2022/11/30 10:41:16;;;;;;;25.30;15.90;;;;;;;9.22;64.88;100475.22;10443492;28;20056;-72
2022/11/30 10:46:23;;;;;;;24.90;15.48;;;;;;;9.29;65.01;100471.44;10435126;28;20397;-71
2022/11/30 10:51:26;;;;;;;24.85;15.20;;;;;;;9.32;64.65;100473.06;10428634;28;20053;-71
2022/11/30 10:56:27;;;;;;;26.88;15.60;;;;;;;9.40;64.80;100469.16;10429903;28;20053;-71
2022/11/30 11:01:35;;;;;;;22.73;14.32;;;;;;;9.41;64.41;100468.25;10431240;28;20045;-71
2022/11/30 11:06:46;;;;;;;21.27;13.23;;;;;;;9.36;64.14;100459.78;10426257;28;20049;-71
2022/11/30 11:12:02;;;;;;;24.35;14.75;;;;;;;9.40;64.17;100466.53;10428618;28;20048;-70
2022/11/30 11:17:20;;;;;;;24.75;14.77;;;;;;;9.39;64.39;100453.56;10459259;28;20587;-71
2022/11/30 11:22:24;;;;;;;21.30;14.27;;;;;;;9.41;64.04;100460.41;10437756;28;20064;-71
2022/11/30 11:27:32;;;;;;;23.88;14.90;;;;;;;9.57;63.74;100465.75;10432561;28;20053;-71
2022/11/30 11:32:34;;;;;;;23.55;15.18;;;;;;;9.54;63.81;100463.31;10433490;28;20060;-71
2022/11/30 11:37:39;;;;;;;25.75;16.70;;;;;;;9.53;64.07;100462.44;10438130;28;20052;-72
2022/11/30 11:42:41;;;;;;;24.40;15.38;;;;;;;9.56;63.73;100458.88;10433798;28;20590;-72
2022/11/30 11:47:44;;;;;;;23.83;15.60;;;;;;;9.57;63.80;100458.78;10431257;28;20652;-70
2022/11/30 11:52:46;;;;;;;37.80;23.95;;;;;;;9.47;64.12;100462.75;10434305;28;20100;-72
2022/11/30 11:57:56;;;;;;;24.52;15.18;;;;;;;9.48;63.92;100453.97;10428781;28;20037;-72
2022/11/30 12:03:14;;;;;;;22.77;14.82;;;;;;;9.50;63.79;100451.31;10430070;28;20091;-72
2022/11/30 12:08:40;;;;;;;23.60;14.63;;;;;;;9.51;63.36;100453.84;10429449;28;20053;-71
2022/11/30 12:13:44;;;;;;;26.00;15.45;;;;;;;9.59;63.54;100451.72;10428743;28;20052;-72
2022/11/30 12:18:53;;;;;;;27.30;18.30;;;;;;;9.53;63.87;100452.00;10461103;28;20563;-72
2022/11/30 12:24:24;;;;;;;27.63;17.08;;;;;;;9.47;63.76;100446.22;10429975;28;20645;-72
2022/11/30 12:29:33;;;;;;;30.73;20.23;;;;;;;9.46;63.79;100450.59;10429242;28;20666;-72
2022/11/30 12:34:58;;;;;;;28.85;18.15;;;;;;;9.46;63.71;100445.38;10429711;28;20901;-71
2022/11/30 12:40:26;;;;;;;22.50;15.45;;;;;;;9.37;63.56;100448.44;10431365;28;20049;-72
2022/11/30 12:45:31;;;;;;;22.80;14.30;;;;;;;9.41;63.54;100449.13;10412870;28;20048;-71
2022/11/30 12:51:12;;;;;;;19.27;12.93;;;;;;;9.24;62.99;100444.69;10428294;28;20060;-72
2022/11/30 12:56:25;;;;;;;22.92;14.00;;;;;;;9.12;63.49;100447.00;10422015;28;20468;-71
2022/11/30 13:01:48;;;;;;;23.55;15.70;;;;;;;9.21;63.96;100457.88;10429183;28;20056;-72
2022/11/30 13:07:01;;;;;;;22.13;13.68;;;;;;;9.20;63.49;100447.53;10427134;28;20049;-71
2022/11/30 13:12:16;;;;;;;23.92;15.32;;;;;;;9.27;63.97;100451.53;10437107;28;20052;-71
2022/11/30 13:17:18;;;;;;;22.98;15.10;;;;;;;9.37;63.78;100451.03;10429805;28;20509;-70
2022/11/30 13:22:52;;;;;;;22.30;13.98;;;;;;;9.24;63.63;100451.69;10427711;28;20524;-72
2022/11/30 13:28:06;;;;;;;22.83;14.52;;;;;;;9.23;63.71;100452.59;10437633;28;20524;-72
2022/11/30 13:33:33;;;;;;;22.83;14.15;;;;;;;9.13;63.46;100446.94;10438945;28;20079;-71
2022/11/30 13:38:35;;;;;;;22.13;13.38;;;;;;;9.18;63.75;100450.19;10430614;28;20053;-72
2022/11/30 13:43:46;;;;;;;24.40;13.77;;;;;;;8.94;63.87;100456.50;10427059;28;20412;-70
2022/11/30 13:49:07;;;;;;;25.17;14.98;;;;;;;8.94;64.28;100461.72;10433683;28;20049;-72
2022/11/30 13:54:41;;;;;;;32.50;17.93;;;;;;;8.69;64.50;100446.31;10426535;28;20059;-72
2022/11/30 13:59:54;;;;;;;40.88;21.33;;;;;;;8.62;64.88;100452.72;10430724;28;20479;-70
2022/11/30 14:05:14;;;;;;;45.30;22.60;;;;;;;8.62;65.32;100455.34;10426428;28;20417;-72
2022/11/30 14:10:40;;;;;;;54.30;26.13;;;;;;;8.68;64.61;100456.81;10423309;28;20072;-71
2022/11/30 14:15:41;;;;;;;55.17;26.83;;;;;;;8.68;65.15;100462.03;10423355;28;20532;-71
2022/11/30 14:21:09;;;;;;;54.60;26.67;;;;;;;8.39;65.41;100465.88;10424836;28;20056;-71
2022/11/30 14:26:14;;;;;;;58.35;28.30;;;;;;;8.49;65.25;100469.81;10428652;28;20068;-71
2022/11/30 14:31:29;;;;;;;50.70;25.45;;;;;;;8.50;65.00;100475.88;10424470;28;20428;-71
2022/11/30 14:36:40;;;;;;;52.63;26.33;;;;;;;8.14;65.16;100475.63;10437962;28;20041;-71
2022/11/30 14:41:42;;;;;;;51.33;26.45;;;;;;;8.15;65.81;100479.94;10426294;28;20055;-70
2022/11/30 14:46:43;;;;;;;48.35;25.50;;;;;;;8.22;65.52;100489.19;10437751;28;20060;-71
2022/11/30 14:51:51;;;;;;;63.53;27.55;;;;;;;8.30;65.89;100492.34;10431705;28;20053;-71
2022/11/30 14:57:01;;;;;;;59.15;27.92;;;;;;;8.26;65.92;100485.53;10432721;28;20427;-70
2022/11/30 15:02:10;;;;;;;61.95;29.20;;;;;;;8.30;66.29;100483.69;10433245;28;20454;-72
2022/11/30 15:07:14;;;;;;;57.70;27.98;;;;;;;8.35;65.71;100484.31;10430584;28;20449;-71
2022/11/30 15:12:21;;;;;;;52.90;26.55;;;;;;;8.27;65.88;100491.59;10434192;28;20056;-71
2022/11/30 15:17:23;;;;;;;51.42;26.92;;;;;;;8.29;65.81;100492.38;10440800;28;20045;-72
2022/11/30 15:22:33;;;;;;;51.40;26.40;;;;;;;8.32;65.68;100492.28;10435494;28;20055;-71
2022/11/30 15:27:35;;;;;;;47.23;25.13;;;;;;;8.28;65.68;100490.72;10432363;28;20049;-70
2022/11/30 15:32:36;;;;;;;52.35;26.52;;;;;;;8.26;66.01;100495.13;10431390;28;20532;-70
2022/11/30 15:37:42;;;;;;;56.72;27.05;;;;;;;8.27;66.02;100508.09;10429571;28;20049;-69
2022/11/30 15:42:47;;;;;;;62.97;27.83;;;;;;;8.29;66.27;100497.59;10434901;28;20489;-71
2022/11/30 15:47:51;;;;;;;57.78;26.70;;;;;;;8.29;66.39;100500.22;10429823;28;20049;-71
2022/11/30 15:52:54;;;;;;;58.00;27.25;;;;;;;8.27;66.36;100499.44;10433608;28;20048;-71
2022/11/30 15:58:01;;;;;;;62.60;27.92;;;;;;;8.24;66.54;100500.41;10441683;28;20587;-70
2022/11/30 16:03:11;;;;;;;59.28;29.05;;;;;;;8.19;66.68;100501.50;10436640;28;20485;-64
2022/11/30 16:08:15;;;;;;;69.60;32.03;;;;;;;8.17;66.83;100508.53;10428511;28;20067;-64
2022/11/30 16:13:20;;;;;;;43.30;23.23;;;;;;;8.12;66.63;100510.50;10441931;28;20048;-65
2022/11/30 16:18:26;;;;;;;47.90;24.35;;;;;;;8.16;66.69;100504.25;10429148;28;20372;-63
2022/11/30 16:23:28;;;;;;;46.70;24.63;;;;;;;8.18;66.66;100511.06;10427470;28;20378;-64
2022/11/30 16:28:30;;;;;;;46.47;24.20;;;;;;;8.23;66.35;100508.28;10429444;28;20068;-63
2022/11/30 16:33:32;;;;;;;48.45;24.65;;;;;;;8.22;66.64;100517.03;10430517;28;20089;-63
2022/11/30 16:38:34;;;;;;;47.10;24.60;;;;;;;8.24;66.67;100516.03;10427392;28;20560;-64
2022/11/30 16:43:38;;;;;;;41.17;23.30;;;;;;;8.20;66.75;100526.66;10423636;28;20056;-63
2022/11/30 16:48:40;;;;;;;41.75;22.02;;;;;;;8.14;66.74;100530.34;10433871;28;20044;-63
2022/11/30 16:53:42;;;;;;;36.08;20.50;;;;;;;8.11;66.91;100533.09;10427604;28;20052;-63
2022/11/30 16:58:45;;;;;;;35.33;20.52;;;;;;;8.11;67.11;100535.69;10439999;28;20045;-64
2022/11/30 17:03:49;;;;;;;32.92;18.65;;;;;;;8.06;66.66;100545.41;10432075;28;20061;-64
2022/11/30 17:08:52;;;;;;;39.25;21.08;;;;;;;8.10;67.15;100551.34;10425240;28;20488;-63
2022/11/30 17:13:54;;;;;;;32.67;18.92;;;;;;;8.11;66.69;100556.53;10428443;28;20048;-64
2022/11/30 17:18:56;;;;;;;36.47;19.85;;;;;;;8.19;66.66;100554.47;10429207;28;20432;-63
2022/11/30 17:23:58;;;;;;;28.95;17.10;;;;;;;8.02;66.40;100555.09;10426304;28;20053;-63
2022/11/30 17:28:59;;;;;;;24.25;15.45;;;;;;;8.01;66.11;100557.78;10428847;28;20060;-64
2022/11/30 17:34:01;;;;;;;28.30;17.10;;;;;;;7.95;66.37;100563.22;10425723;28;20053;-64
2022/11/30 17:39:05;;;;;;;33.45;19.00;;;;;;;7.96;66.53;100570.97;10428562;28;20417;-64
2022/11/30 17:44:08;;;;;;;35.30;19.52;;;;;;;8.04;66.60;100568.06;10450509;28;20061;-64
2022/11/30 17:49:10;;;;;;;32.08;18.33;;;;;;;8.08;66.46;100572.22;10431702;28;20052;-64
2022/11/30 17:54:12;;;;;;;33.63;18.70;;;;;;;8.10;66.56;100569.59;10427797;28;20053;-64
2022/11/30 17:59:13;;;;;;;31.65;19.05;;;;;;;7.98;66.78;100576.97;10428027;28;20053;-63
2022/11/30 18:04:15;;;;;;;32.13;19.30;;;;;;;8.01;66.96;100579.47;10426481;28;20053;-63
2022/11/30 18:09:16;;;;;;;48.95;25.75;;;;;;;8.00;67.11;100580.34;10422503;28;20049;-63
2022/11/30 18:14:18;;;;;;;46.95;23.10;;;;;;;7.91;67.27;100585.09;10425305;28;20049;-64
2022/11/30 18:19:20;;;;;;;45.33;22.80;;;;;;;7.91;67.48;100590.28;10426790;28;20107;-63
2022/11/30 18:24:22;;;;;;;22.98;15.50;;;;;;;7.85;66.67;100593.13;10425746;28;20504;-63
2022/11/30 18:29:26;;;;;;;22.70;15.45;;;;;;;7.80;66.76;100595.91;10458785;28;20053;-63
2022/11/30 18:34:29;;;;;;;28.35;15.60;;;;;;;7.77;66.78;100606.41;10458014;28;20041;-64
2022/11/30 18:39:30;;;;;;;24.77;15.43;;;;;;;7.76;66.79;100607.34;10451379;28;20056;-63
2022/11/30 18:44:33;;;;;;;25.88;16.60;;;;;;;7.83;66.57;100606.19;10424308;28;20434;-63
2022/11/30 18:49:37;;;;;;;34.50;19.65;;;;;;;7.84;66.86;100605.28;10434156;28;20115;-64
2022/11/30 18:54:38;;;;;;;38.03;21.02;;;;;;;7.84;67.06;100607.91;10425901;28;20056;-63
2022/11/30 18:59:40;;;;;;;55.25;24.98;;;;;;;7.79;67.19;100604.59;10465650;28;20049;-62
2022/11/30 19:04:41;;;;;;;73.80;27.48;;;;;;;7.77;67.50;100603.81;10443212;28;20049;-64
2022/11/30 19:09:43;;;;;;;45.08;22.52;;;;;;;7.76;67.78;100611.69;10424728;28;20045;-63
2022/11/30 19:14:45;;;;;;;41.75;22.10;;;;;;;7.73;67.81;100614.44;10426750;28;20528;-62
2022/11/30 19:19:47;;;;;;;37.65;20.52;;;;;;;7.73;67.75;100612.66;10424514;28;20122;-64
2022/11/30 19:24:48;;;;;;;37.83;21.38;;;;;;;7.67;67.61;100617.25;10426027;28;20485;-64
2022/11/30 19:29:51;;;;;;;45.42;22.13;;;;;;;7.76;67.73;100616.91;10418291;28;20053;-63
2022/11/30 19:34:52;;;;;;;46.13;22.80;;;;;;;7.68;67.71;100614.59;10431258;28;20067;-63
2022/11/30 19:39:54;;;;;;;60.58;25.88;;;;;;;7.72;67.89;100618.78;10437123;28;20056;-64
2022/11/30 19:44:55;;;;;;;57.63;25.17;;;;;;;7.78;67.74;100621.16;10434098;28;20497;-63
2022/11/30 19:49:57;;;;;;;31.25;17.58;;;;;;;7.77;67.50;100629.84;10433094;28;20060;-63
2022/11/30 19:54:59;;;;;;;22.52;14.73;;;;;;;7.69;67.41;100631.88;10455037;28;20048;-63
2022/11/30 20:00:04;;;;;;;24.73;15.50;;;;;;;7.72;67.27;100621.38;10446779;28;20181;-63
2022/11/30 20:05:06;;;;;;;25.58;17.15;;;;;;;7.73;67.06;100625.66;10432377;28;20080;-63
2022/11/30 20:10:12;;;;;;;27.05;16.80;;;;;;;7.74;66.96;100623.91;10461332;28;20053;-64
2022/11/30 20:15:13;;;;;;;26.40;16.27;;;;;;;7.67;67.17;100628.50;10435731;28;20417;-64
2022/11/30 20:20:15;;;;;;;27.65;17.02;;;;;;;7.71;67.05;100631.84;10432590;28;20052;-63
2022/11/30 20:25:18;;;;;;;32.47;17.85;;;;;;;7.72;67.23;100636.16;10431955;28;20130;-63
2022/11/30 20:30:19;;;;;;;33.95;19.88;;;;;;;7.77;67.36;100629.84;10432410;28;20524;-63
2022/11/30 20:35:21;;;;;;;39.63;25.50;;;;;;;7.73;67.50;100625.66;10431736;28;20485;-63
2022/11/30 20:40:23;;;;;;;43.10;24.52;;;;;;;7.72;67.42;100631.78;10439451;28;20398;-63
2022/11/30 20:45:24;;;;;;;34.10;21.27;;;;;;;7.73;67.46;100633.47;10429252;28;20072;-63
2022/11/30 20:50:26;;;;;;;21.23;14.57;;;;;;;7.77;67.02;100635.06;10428861;28;20057;-63
2022/11/30 20:55:27;;;;;;;31.83;19.08;;;;;;;7.66;67.33;100634.63;10429312;28;20413;-63
2022/11/30 21:00:29;;;;;;;27.73;18.77;;;;;;;7.75;67.00;100638.66;10429954;28;20044;-64
2022/11/30 21:05:31;;;;;;;34.00;19.80;;;;;;;7.77;67.27;100639.44;10430963;28;20052;-64
2022/11/30 21:10:37;;;;;;;32.40;20.23;;;;;;;7.77;67.28;100642.88;10439201;28;20132;-63
2022/11/30 21:15:39;;;;;;;37.25;20.80;;;;;;;7.83;67.20;100641.81;10443245;28;20056;-64
2022/11/30 21:20:40;;;;;;;46.67;24.40;;;;;;;7.82;67.25;100648.78;10427883;28;20048;-64
2022/11/30 21:25:44;;;;;;;40.55;22.80;;;;;;;7.86;67.21;100639.94;10435974;28;20044;-64
2022/11/30 21:30:46;;;;;;;43.22;23.50;;;;;;;7.87;67.32;100646.00;10426883;28;20413;-65
2022/11/30 21:35:47;;;;;;;37.17;21.20;;;;;;;7.89;67.08;100642.44;10436161;28;20061;-64
2022/11/30 21:40:57;;;;;;;28.00;18.25;;;;;;;7.78;67.01;100641.13;10428749;28;20045;-65
2022/11/30 21:46:00;;;;;;;28.67;18.63;;;;;;;7.77;67.39;100642.03;10433664;28;20037;-64
2022/11/30 21:51:03;;;;;;;28.00;17.77;;;;;;;7.78;67.16;100646.34;10431415;28;20574;-64
2022/11/30 21:56:11;;;;;;;27.70;17.10;;;;;;;7.77;67.30;100649.84;10426722;28;20622;-64
2022/11/30 22:01:27;;;;;;;30.52;16.67;;;;;;;7.77;67.44;100647.25;10428670;28;20049;-64
2022/11/30 22:06:30;;;;;;;29.48;18.13;;;;;;;7.74;67.60;100645.59;10432880;28;20067;-63
2022/11/30 22:11:34;;;;;;;35.15;18.40;;;;;;;7.77;67.61;100642.03;10427069;28;20045;-64
2022/11/30 22:16:36;;;;;;;24.13;14.77;;;;;;;7.76;67.55;100642.94;10443237;28;20053;-64
2022/11/30 22:21:37;;;;;;;26.17;15.82;;;;;;;7.81;67.59;100647.06;10425812;28;20418;-64
2022/11/30 22:26:42;;;;;;;24.05;15.63;;;;;;;7.75;67.56;100643.84;10432506;28;20063;-64
2022/11/30 22:31:46;;;;;;;29.10;16.95;;;;;;;7.73;67.89;100649.09;10434819;28;20072;-64
2022/11/30 22:36:48;;;;;;;20.23;13.70;;;;;;;7.61;67.68;100657.34;10427324;28;20425;-64
2022/11/30 22:41:51;;;;;;;18.63;11.82;;;;;;;7.58;67.84;100654.03;10443419;28;20497;-64
2022/11/30 22:46:58;;;;;;;15.77;11.15;;;;;;;7.59;67.72;100651.34;10431621;28;20413;-63
2022/11/30 22:52:00;;;;;;;14.65;9.60;;;;;;;7.57;67.63;100649.75;10428013;28;20056;-64
2022/11/30 22:57:01;;;;;;;17.88;11.35;;;;;;;7.52;67.83;100655.09;10458521;28;20082;-64
2022/11/30 23:02:03;;;;;;;17.95;10.60;;;;;;;7.61;67.69;100648.72;10426485;28;20036;-63
2022/11/30 23:07:05;;;;;;;21.20;11.95;;;;;;;7.63;67.68;100644.31;10436764;28;20044;-63